createdAt,value
2019-04-10T00:00:41.334Z,17.37
2019-04-10T00:03:24.941Z,20.03
2019-04-10T00:05:40.923Z,20.03
2019-04-10T00:08:10.193Z,16.70
2019-04-10T00:10:38.506Z,19.00
2019-04-10T00:13:07.378Z,25.17
2019-04-10T00:15:36.181Z,17.53
2019-04-10T00:18:07.397Z,14.37
2019-04-10T00:20:36.494Z,16.97
2019-04-10T00:23:04.948Z,21.93
2019-04-10T00:25:34.983Z,17.40
2019-04-10T00:28:03.586Z,20.23
2019-04-10T00:30:33.267Z,18.00
2019-04-10T00:33:02.716Z,16.10
2019-04-10T00:35:31.689Z,20.30
2019-04-10T00:37:59.955Z,20.50
2019-04-10T00:40:28.908Z,19.90
2019-04-10T00:43:00.207Z,21.50
2019-04-10T00:45:27.952Z,28.13
2019-04-10T00:47:56.752Z,27.10
2019-04-10T00:50:26.477Z,16.90
2019-04-10T00:52:54.685Z,22.50
2019-04-10T00:55:23.803Z,20.43
2019-04-10T00:57:54.587Z,20.60
2019-04-10T01:00:23.541Z,21.53
2019-04-10T01:02:52.073Z,22.43
2019-04-10T01:05:20.883Z,20.27
2019-04-10T01:07:51.828Z,21.90
2019-04-10T01:10:19.904Z,17.73
2019-04-10T01:12:48.570Z,20.23
2019-04-10T01:15:18.310Z,19.00
2019-04-10T01:17:46.616Z,18.80
2019-04-10T01:20:15.577Z,21.07
2019-04-10T01:22:43.938Z,22.73
2019-04-10T01:25:12.719Z,19.57
2019-04-10T01:27:42.495Z,21.43
2019-04-10T01:30:10.918Z,21.00
2019-04-10T01:32:39.875Z,19.17
2019-04-10T01:35:09.925Z,19.17
2019-04-10T01:37:48.840Z,18.67
2019-04-10T01:40:07.794Z,18.23
2019-04-10T01:42:36.893Z,21.07
2019-04-10T01:45:05.806Z,19.67
2019-04-10T01:47:35.232Z,25.60
2019-04-10T01:50:04.422Z,21.77
2019-04-10T01:52:33.335Z,17.40
2019-04-10T01:55:16.018Z,25.33
2019-04-10T01:57:32.916Z,21.37
2019-04-10T02:00:02.743Z,18.83
2019-04-10T02:02:39.160Z,19.03
2019-04-10T02:05:08.283Z,19.87
2019-04-10T02:07:38.257Z,19.97
2019-04-10T02:10:07.932Z,18.23
2019-04-10T02:12:37.006Z,17.53
2019-04-10T02:15:07.104Z,17.87
2019-04-10T02:17:36.682Z,17.93
2019-04-10T02:20:05.594Z,19.57
2019-04-10T02:22:34.400Z,21.20
2019-04-10T02:25:03.444Z,16.97
2019-04-10T02:27:32.219Z,20.03
2019-04-10T02:30:01.251Z,20.27
2019-04-10T02:32:32.356Z,18.77
2019-04-10T02:35:01.219Z,21.53
2019-04-10T02:37:29.236Z,16.80
2019-04-10T02:40:02.637Z,19.07
2019-04-10T02:42:27.449Z,14.47
2019-04-10T02:44:57.804Z,16.90
2019-04-10T02:47:28.300Z,24.80
2019-04-10T02:49:57.136Z,13.97
2019-04-10T02:52:26.101Z,15.47
2019-04-10T02:54:55.144Z,13.60
2019-04-10T02:57:25.309Z,16.87
2019-04-10T02:59:53.879Z,13.67
2019-04-10T03:02:22.308Z,16.87
2019-04-10T03:04:51.115Z,12.47
2019-04-10T03:07:19.992Z,12.90
2019-04-10T03:10:00.630Z,12.47
2019-04-10T03:12:19.728Z,14.83
2019-04-10T03:14:49.708Z,18.07
2019-04-10T03:17:19.703Z,14.77
2019-04-10T03:19:47.392Z,13.73
2019-04-10T03:22:16.645Z,12.47
2019-04-10T03:24:45.208Z,11.33
2019-04-10T03:27:14.309Z,22.07
2019-04-10T03:29:44.852Z,13.23
2019-04-10T03:32:18.821Z,13.33
2019-04-10T03:34:48.332Z,16.13
2019-04-10T03:37:16.001Z,18.93
2019-04-10T03:39:44.151Z,16.20
2019-04-10T03:42:13.532Z,12.80
2019-04-10T03:44:43.032Z,11.10
2019-04-10T03:47:13.385Z,12.90
2019-04-10T03:49:42.744Z,13.30
2019-04-10T03:52:12.075Z,16.77
2019-04-10T03:54:40.863Z,11.93
2019-04-10T03:57:10.105Z,15.63
2019-04-10T03:59:40.210Z,11.70
2019-04-10T04:02:07.739Z,12.87
2019-04-10T04:04:37.683Z,10.77
2019-04-10T04:07:07.055Z,11.50
2019-04-10T04:09:35.632Z,19.10
2019-04-10T04:12:04.406Z,11.53
2019-04-10T04:14:33.392Z,11.33
2019-04-10T04:17:04.198Z,9.73
2019-04-10T04:19:34.447Z,10.70
2019-04-10T04:22:02.155Z,11.17
2019-04-10T04:24:31.597Z,11.20
2019-04-10T04:27:00.576Z,9.63
2019-04-10T04:29:28.840Z,12.53
2019-04-10T04:31:59.013Z,12.20
2019-04-10T04:34:27.499Z,13.37
2019-04-10T04:36:56.294Z,16.57
2019-04-10T04:39:28.127Z,12.63
2019-04-10T04:41:53.855Z,12.33
2019-04-10T04:44:22.675Z,15.50
2019-04-10T04:46:52.624Z,11.73
2019-04-10T04:49:20.975Z,10.53
2019-04-10T04:51:50.603Z,11.43
2019-04-10T04:54:19.247Z,16.10
2019-04-10T04:56:48.518Z,10.70
2019-04-10T04:59:18.346Z,10.63
2019-04-10T05:01:46.873Z,12.80
2019-04-10T05:04:15.399Z,12.43
2019-04-10T05:06:44.215Z,14.60
2019-04-10T05:09:17.032Z,13.80
2019-04-10T05:11:42.679Z,15.37
2019-04-10T05:14:11.070Z,12.23
2019-04-10T05:16:41.663Z,16.00
2019-04-10T05:19:10.584Z,11.47
2019-04-10T05:21:39.448Z,10.33
2019-04-10T05:24:08.403Z,14.03
2019-04-10T05:26:36.988Z,14.40
2019-04-10T05:29:07.173Z,11.60
2019-04-10T05:31:37.658Z,11.37
2019-04-10T05:34:06.691Z,12.97
2019-04-10T05:36:36.076Z,14.93
2019-04-10T05:39:06.732Z,14.33
2019-04-10T05:41:35.997Z,11.53
2019-04-10T05:44:05.358Z,9.50
2019-04-10T05:46:36.775Z,7.97
2019-04-10T05:49:06.660Z,11.63
2019-04-10T05:51:34.494Z,7.03
2019-04-10T05:54:05.158Z,13.10
2019-04-10T05:56:34.320Z,10.50
2019-04-10T05:59:07.025Z,11.37
2019-04-10T06:01:38.130Z,9.13
2019-04-10T06:04:03.711Z,13.87
2019-04-10T06:06:32.663Z,15.03
2019-04-10T06:09:02.515Z,16.33
2019-04-10T06:11:30.998Z,12.63
2019-04-10T06:13:59.170Z,11.27
2019-04-10T06:16:30.218Z,7.70
2019-04-10T06:18:59.777Z,8.80
2019-04-10T06:21:29.906Z,7.30
2019-04-10T06:23:58.422Z,11.97
2019-04-10T06:26:28.030Z,8.63
2019-04-10T06:28:56.932Z,8.23
2019-04-10T06:31:25.670Z,8.70
2019-04-10T06:33:54.520Z,9.57
2019-04-10T06:36:25.116Z,16.27
2019-04-10T06:38:55.108Z,6.97
2019-04-10T06:41:26.395Z,7.13
2019-04-10T06:43:55.283Z,7.87
2019-04-10T06:46:24.235Z,8.63
2019-04-10T06:48:52.093Z,7.73
2019-04-10T06:51:21.590Z,7.20
2019-04-10T06:54:00.842Z,10.57
2019-04-10T06:56:19.419Z,7.17
2019-04-10T06:58:48.235Z,9.77
2019-04-10T07:01:21.036Z,7.50
2019-04-10T07:03:56.542Z,11.13
2019-04-10T07:06:19.008Z,6.03
2019-04-10T07:08:48.883Z,11.83
2019-04-10T07:11:13.497Z,7.93
2019-04-10T07:13:41.697Z,6.53
2019-04-10T07:16:11.272Z,7.53
2019-04-10T07:18:40.153Z,8.57
2019-04-10T07:21:08.644Z,8.70
2019-04-10T07:23:38.629Z,7.53
2019-04-10T07:26:07.123Z,10.30
2019-04-10T07:28:38.793Z,6.03
2019-04-10T07:31:08.437Z,14.03
2019-04-10T07:33:37.053Z,6.40
2019-04-10T07:36:09.010Z,10.23
2019-04-10T07:38:35.009Z,10.40
2019-04-10T07:41:07.082Z,9.47
2019-04-10T07:43:32.566Z,9.57
2019-04-10T07:46:01.401Z,11.37
2019-04-10T07:48:31.456Z,7.03
2019-04-10T07:51:00.955Z,14.53
2019-04-10T07:53:30.894Z,12.17
2019-04-10T07:56:06.381Z,8.73
2019-04-10T07:58:29.208Z,9.47
2019-04-10T08:00:59.346Z,6.90
2019-04-10T08:03:28.763Z,9.90
2019-04-10T08:05:57.995Z,8.73
2019-04-10T08:08:30.381Z,7.57
2019-04-10T08:11:01.644Z,12.43
2019-04-10T08:13:33.119Z,8.70
2019-04-10T08:16:02.606Z,10.93
2019-04-10T08:18:32.242Z,9.23
2019-04-10T08:21:03.340Z,7.10
2019-04-10T08:23:32.152Z,8.40
2019-04-10T08:26:01.943Z,9.83
2019-04-10T08:28:31.232Z,9.70
2019-04-10T08:31:01.025Z,9.37
2019-04-10T08:33:30.201Z,7.33
2019-04-10T08:35:58.984Z,15.20
2019-04-10T08:38:28.059Z,8.43
2019-04-10T08:40:56.589Z,8.13
2019-04-10T08:43:26.663Z,11.83
2019-04-10T08:45:55.491Z,8.77
2019-04-10T08:48:30.464Z,12.90
2019-04-10T08:50:58.897Z,9.50
2019-04-10T08:53:28.598Z,14.10
2019-04-10T08:55:56.818Z,44.10
2019-04-10T08:58:25.290Z,9.40
2019-04-10T09:00:54.294Z,14.33
2019-04-10T09:03:24.548Z,12.13
2019-04-10T09:05:53.207Z,9.23
2019-04-10T09:09:23.758Z,15.67
2019-04-10T09:11:53.514Z,15.30
2019-04-10T09:14:23.126Z,13.00
2019-04-10T09:16:51.120Z,13.87
2019-04-10T09:19:22.788Z,14.03
2019-04-10T09:21:52.655Z,13.33
2019-04-10T09:24:21.641Z,10.43
2019-04-10T09:26:50.839Z,9.20
2019-04-10T09:29:21.854Z,10.77
2019-04-10T09:31:50.301Z,13.63
2019-04-10T09:34:18.179Z,7.50
2019-04-10T09:36:47.019Z,14.33
2019-04-10T09:39:17.081Z,9.27
2019-04-10T09:41:46.328Z,10.97
2019-04-10T09:44:15.168Z,12.60
2019-04-10T09:46:45.044Z,13.53
2019-04-10T09:49:14.348Z,12.63
2019-04-10T09:51:42.500Z,10.63
2019-04-10T09:54:13.332Z,13.50
2019-04-10T09:56:41.970Z,10.27
2019-04-10T09:59:09.919Z,10.83
2019-04-10T10:01:39.547Z,10.87
2019-04-10T10:04:40.318Z,10.53
2019-04-10T10:07:10.305Z,12.23
2019-04-10T10:09:38.683Z,15.30
2019-04-10T10:12:09.541Z,12.10
2019-04-10T10:14:38.049Z,11.43
2019-04-10T10:17:06.667Z,12.10
2019-04-10T10:19:39.147Z,9.33
2019-04-10T10:22:10.246Z,15.57
2019-04-10T10:24:39.077Z,11.50
2019-04-10T10:27:09.493Z,9.60
2019-04-10T10:29:37.695Z,14.20
2019-04-10T10:32:06.779Z,11.23
2019-04-10T10:34:36.648Z,9.63
2019-04-10T10:37:06.213Z,10.40
2019-04-10T10:39:34.946Z,14.20
2019-04-10T10:42:03.262Z,15.33
2019-04-10T10:44:32.297Z,12.50
2019-04-10T10:47:02.091Z,12.33
2019-04-10T10:49:32.605Z,14.97
2019-04-10T10:52:03.523Z,12.07
2019-04-10T10:54:31.405Z,17.57
2019-04-10T10:57:01.257Z,10.40
2019-04-10T10:59:30.471Z,10.00
2019-04-10T11:02:00.237Z,13.70
2019-04-10T11:04:29.689Z,14.63
2019-04-10T11:07:01.293Z,19.60
2019-04-10T11:09:30.182Z,11.73
2019-04-10T11:12:00.122Z,10.10
2019-04-10T11:14:29.915Z,14.43
2019-04-10T11:16:58.515Z,13.57
2019-04-10T11:19:27.359Z,8.97
2019-04-10T11:21:56.863Z,10.80
2019-04-10T11:24:26.744Z,11.77
2019-04-10T11:26:55.871Z,12.77
2019-04-10T11:29:26.472Z,9.03
2019-04-10T11:31:55.590Z,13.67
2019-04-10T11:34:24.244Z,12.07
2019-04-10T11:37:14.164Z,11.97
2019-04-10T11:41:50.437Z,13.83
2019-04-10T11:44:20.339Z,21.13
2019-04-10T11:46:49.456Z,17.93
2019-04-10T11:49:20.214Z,15.73
2019-04-10T11:51:49.936Z,14.77
2019-04-10T11:54:18.120Z,12.03
2019-04-10T11:56:48.705Z,12.03
2019-04-10T11:59:14.844Z,11.50
2019-04-10T12:01:47.958Z,10.77
2019-04-10T12:04:19.194Z,12.43
2019-04-10T12:06:49.198Z,8.23
2019-04-10T12:10:00.122Z,15.80
2019-04-10T12:11:45.486Z,12.27
2019-04-10T12:14:15.266Z,11.03
2019-04-10T12:16:43.943Z,15.70
2019-04-10T12:19:13.283Z,9.50
2019-04-10T12:21:42.151Z,9.13
2019-04-10T12:24:11.564Z,17.20
2019-04-10T12:26:40.275Z,10.63
2019-04-10T12:29:09.219Z,8.97
2019-04-10T12:31:38.103Z,10.27
2019-04-10T12:34:07.049Z,10.00
2019-04-10T12:36:38.628Z,8.70
2019-04-10T12:39:08.869Z,11.97
2019-04-10T12:41:37.623Z,9.53
2019-04-10T12:44:07.482Z,6.73
2019-04-10T12:46:37.323Z,9.07
2019-04-10T12:49:06.118Z,12.23
2019-04-10T12:51:36.017Z,10.73
2019-04-10T12:54:04.652Z,9.30
2019-04-10T12:56:34.609Z,8.87
2019-04-10T12:59:03.423Z,9.03
2019-04-10T13:01:33.652Z,12.10
2019-04-10T13:04:03.399Z,10.40
2019-04-10T13:06:31.734Z,7.50
2019-04-10T13:09:07.392Z,9.17
2019-04-10T13:11:29.012Z,10.07
2019-04-10T13:13:58.232Z,9.87
2019-04-10T13:16:27.978Z,14.03
2019-04-10T13:18:56.804Z,13.93
2019-04-10T13:21:28.484Z,13.97
2019-04-10T13:24:03.642Z,9.57
2019-04-10T13:26:32.674Z,14.53
2019-04-10T13:29:01.579Z,8.07
2019-04-10T13:31:30.908Z,8.30
2019-04-10T13:34:00.694Z,9.63
2019-04-10T13:36:29.369Z,11.60
2019-04-10T13:38:58.198Z,14.27
2019-04-10T13:41:26.285Z,12.43
2019-04-10T13:43:55.105Z,11.67
2019-04-10T13:46:24.676Z,10.40
2019-04-10T13:48:53.486Z,13.43
2019-04-10T13:51:21.535Z,10.37
2019-04-10T13:53:50.376Z,15.77
2019-04-10T13:56:19.227Z,8.57
2019-04-10T13:58:52.783Z,7.87
2019-04-10T14:01:27.414Z,8.67
2019-04-10T14:03:56.234Z,16.13
2019-04-10T14:06:25.999Z,9.27
2019-04-10T14:09:08.685Z,11.70
2019-04-10T14:11:24.840Z,8.57
2019-04-10T14:13:52.507Z,10.13
2019-04-10T14:16:22.459Z,10.10
2019-04-10T14:18:51.255Z,9.93
2019-04-10T14:21:20.844Z,11.67
2019-04-10T14:23:51.425Z,8.30
2019-04-10T14:26:52.214Z,10.90
2019-04-10T14:29:21.070Z,12.13
2019-04-10T14:31:56.503Z,9.73
2019-04-10T14:34:24.286Z,10.43
2019-04-10T14:36:53.100Z,8.10
2019-04-10T14:39:24.330Z,7.43
2019-04-10T14:41:53.941Z,9.40
2019-04-10T14:44:23.420Z,8.17
2019-04-10T14:46:53.804Z,14.33
2019-04-10T14:49:21.486Z,12.97
2019-04-10T14:51:52.601Z,14.03
2019-04-10T14:54:21.743Z,6.23
2019-04-10T14:56:50.497Z,9.70
2019-04-10T14:59:19.824Z,10.77
2019-04-10T15:01:48.550Z,8.10
2019-04-10T15:04:17.381Z,10.03
2019-04-10T15:06:46.160Z,12.43
2019-04-10T15:09:22.178Z,9.13
2019-04-10T15:11:46.821Z,9.70
2019-04-10T15:14:15.203Z,8.73
2019-04-10T15:16:52.927Z,9.33
2019-04-10T15:19:13.598Z,11.27
2019-04-10T15:21:43.046Z,7.93
2019-04-10T15:24:11.743Z,6.43
2019-04-10T15:26:41.402Z,9.53
2019-04-10T15:29:12.201Z,12.63
2019-04-10T15:31:40.235Z,7.57
2019-04-10T15:34:09.821Z,10.17
2019-04-10T15:36:38.537Z,7.30
2019-04-10T15:39:08.700Z,11.23
2019-04-10T15:41:37.127Z,10.60
2019-04-10T15:44:06.068Z,6.93
2019-04-10T15:46:35.296Z,8.70
2019-04-10T15:49:03.788Z,11.70
2019-04-10T15:51:33.214Z,7.23
2019-04-10T15:54:02.659Z,9.67
2019-04-10T15:56:31.924Z,8.93
2019-04-10T15:59:01.324Z,6.13
2019-04-10T16:01:31.163Z,13.53
2019-04-10T16:04:01.162Z,7.43
2019-04-10T16:06:29.783Z,11.40
2019-04-10T16:08:58.879Z,10.57
2019-04-10T16:11:34.070Z,7.57
2019-04-10T16:14:16.669Z,12.23
2019-04-10T16:18:41.180Z,9.80
2019-04-10T16:21:10.975Z,14.57
2019-04-10T16:23:50.460Z,13.20
2019-04-10T16:26:20.134Z,9.73
2019-04-10T16:28:50.220Z,7.97
2019-04-10T16:31:19.404Z,11.13
2019-04-10T16:33:48.453Z,13.70
2019-04-10T16:36:17.731Z,22.17
2019-04-10T16:38:47.344Z,13.30
2019-04-10T16:41:17.228Z,10.03
2019-04-10T16:43:45.141Z,14.13
2019-04-10T16:46:14.047Z,8.63
2019-04-10T16:48:42.844Z,6.57
2019-04-10T16:51:12.110Z,7.67
2019-04-10T16:53:41.281Z,20.63
2019-04-10T16:56:09.535Z,7.50
2019-04-10T16:58:38.286Z,8.33
2019-04-10T17:01:07.070Z,7.40
2019-04-10T17:03:36.023Z,9.93
2019-04-10T17:06:06.056Z,8.43
2019-04-10T17:08:37.387Z,6.70
2019-04-10T17:11:05.337Z,9.50
2019-04-10T17:13:34.933Z,13.17
2019-04-10T17:16:05.143Z,9.03
2019-04-10T17:18:33.028Z,11.13
2019-04-10T17:21:02.642Z,8.50
2019-04-10T17:23:30.743Z,6.57
2019-04-10T17:26:00.395Z,10.00
2019-04-10T17:28:28.560Z,6.93
2019-04-10T17:30:58.347Z,8.83
2019-04-10T17:33:28.258Z,7.20
2019-04-10T17:35:57.749Z,8.17
2019-04-10T17:44:07.719Z,6.37
2019-04-10T17:46:37.428Z,7.23
2019-04-10T17:49:10.280Z,8.67
2019-04-10T17:51:38.486Z,6.43
2019-04-10T17:54:09.650Z,12.57
2019-04-10T17:56:40.251Z,10.53
2019-04-10T17:59:10.045Z,13.30
2019-04-10T18:01:39.353Z,6.00
2019-04-10T18:04:08.152Z,4.70
2019-04-10T18:06:36.997Z,6.23
2019-04-10T18:09:08.186Z,8.20
2019-04-10T18:11:37.355Z,4.90
2019-04-10T18:14:06.997Z,6.50
2019-04-10T18:16:36.205Z,5.07
2019-04-10T18:19:06.135Z,5.90
2019-04-10T18:21:34.968Z,6.50
2019-04-10T18:24:02.575Z,9.43
2019-04-10T18:26:31.993Z,7.67
2019-04-10T18:29:02.419Z,7.50
2019-04-10T18:31:31.271Z,9.03
2019-04-10T18:34:00.720Z,7.03
2019-04-10T18:36:29.870Z,8.70
2019-04-10T18:38:59.832Z,10.63
2019-04-10T18:41:29.918Z,8.27
2019-04-10T18:43:58.537Z,9.80
2019-04-10T18:46:27.053Z,6.60
2019-04-10T18:48:56.769Z,7.27
2019-04-10T18:51:27.774Z,4.67
2019-04-10T18:53:57.599Z,4.30
2019-04-10T18:56:25.505Z,10.23
2019-04-10T18:59:18.764Z,4.87
2019-04-10T19:01:53.614Z,13.37
2019-04-10T19:04:27.964Z,7.60
2019-04-10T19:06:58.615Z,4.73
2019-04-10T19:09:30.393Z,5.40
2019-04-10T19:11:58.571Z,3.80
2019-04-10T19:14:28.157Z,8.13
2019-04-10T19:16:56.285Z,5.87
2019-04-10T19:19:26.009Z,8.50
2019-04-10T19:21:55.895Z,6.57
2019-04-10T19:24:23.338Z,5.03
2019-04-10T19:26:52.111Z,6.07
2019-04-10T19:29:22.138Z,4.67
2019-04-10T19:31:54.120Z,11.73
2019-04-10T19:34:23.450Z,4.47
2019-04-10T19:36:52.739Z,5.60
2019-04-10T19:39:22.291Z,5.93
2019-04-10T19:41:51.006Z,7.20
2019-04-10T19:44:19.306Z,5.00
2019-04-10T19:46:50.096Z,6.70
2019-04-10T19:49:17.742Z,5.17
2019-04-10T19:51:46.761Z,5.73
2019-04-10T19:54:15.707Z,8.10
2019-04-10T19:56:44.613Z,5.30
2019-04-10T19:59:12.988Z,4.37
2019-04-10T20:01:42.365Z,4.67
2019-04-10T20:04:12.339Z,6.20
2019-04-10T20:06:40.585Z,6.47
2019-04-10T20:09:10.372Z,4.57
2019-04-10T20:11:44.745Z,6.17
2019-04-10T20:14:08.414Z,5.27
2019-04-10T20:16:37.511Z,6.37
2019-04-10T20:19:05.728Z,5.10
2019-04-10T20:21:34.575Z,5.20
2019-04-10T20:24:03.470Z,10.00
2019-04-10T20:26:32.277Z,5.80
2019-04-10T20:29:02.337Z,4.33
2019-04-10T20:31:33.161Z,7.20
2019-04-10T20:34:01.720Z,6.90
2019-04-10T20:36:31.206Z,7.00
2019-04-10T20:39:00.894Z,5.70
2019-04-10T20:41:28.936Z,4.93
2019-04-10T20:43:59.543Z,7.67
2019-04-10T20:46:28.497Z,15.13
2019-04-10T20:48:57.188Z,10.37
2019-04-10T20:51:26.238Z,7.10
2019-04-10T20:53:56.055Z,5.93
2019-04-10T20:56:24.526Z,5.87
2019-04-10T20:58:54.846Z,7.90
2019-04-10T21:01:22.850Z,8.07
2019-04-10T21:03:52.391Z,8.33
2019-04-10T21:06:21.068Z,6.67
2019-04-10T21:08:50.314Z,14.00
2019-04-10T21:11:18.123Z,10.50
2019-04-10T21:13:48.862Z,13.47
2019-04-10T21:16:17.598Z,7.93
2019-04-10T21:18:46.203Z,7.47
2019-04-10T21:21:14.493Z,7.27
2019-04-10T21:23:44.267Z,8.30
2019-04-10T21:26:12.584Z,10.53
2019-04-10T21:28:41.614Z,22.17
2019-04-10T21:31:18.191Z,12.67
2019-04-10T21:33:52.642Z,7.50
2019-04-10T21:36:21.100Z,9.03
2019-04-10T21:38:50.656Z,9.80
2019-04-10T21:41:20.731Z,6.77
2019-04-10T21:43:51.159Z,8.80
2019-04-10T21:46:19.949Z,9.60
2019-04-10T21:48:49.347Z,9.37
2019-04-10T21:51:19.004Z,13.40
2019-04-10T21:53:47.845Z,10.57
2019-04-10T21:56:16.651Z,7.63
2019-04-10T21:58:46.504Z,11.03
2019-04-10T22:01:15.658Z,7.37
2019-04-10T22:03:43.790Z,8.50
2019-04-10T22:06:21.875Z,6.70
2019-04-10T22:08:54.746Z,8.87
2019-04-10T22:11:23.665Z,8.90
2019-04-10T22:13:53.419Z,7.87
2019-04-10T22:16:22.243Z,8.67
2019-04-10T22:18:51.984Z,8.60
2019-04-10T22:21:20.711Z,10.40
2019-04-10T22:23:50.855Z,10.13
2019-04-10T22:26:19.911Z,10.07
2019-04-10T22:28:47.670Z,11.13
2019-04-10T22:31:16.382Z,11.90
2019-04-10T22:33:45.171Z,10.63
2019-04-10T22:36:14.977Z,8.67
2019-04-10T22:38:44.025Z,9.50
2019-04-10T22:41:23.706Z,7.67
2019-04-10T22:43:42.894Z,11.27
2019-04-10T22:46:11.082Z,13.63
2019-04-10T22:48:39.887Z,12.10
2019-04-10T22:51:09.709Z,10.93
2019-04-10T22:53:37.700Z,9.37
2019-04-10T22:56:07.051Z,11.27
2019-04-10T22:58:37.272Z,10.47
2019-04-10T23:01:06.924Z,9.73
2019-04-10T23:03:36.634Z,18.17
2019-04-10T23:06:07.028Z,17.13
2019-04-10T23:08:35.807Z,11.47
2019-04-10T23:11:05.686Z,16.60
2019-04-10T23:13:34.154Z,12.53
2019-04-10T23:16:04.081Z,15.60
2019-04-10T23:18:33.760Z,9.53
2019-04-10T23:21:02.347Z,9.53
2019-04-10T23:23:31.135Z,11.13
2019-04-10T23:26:00.623Z,10.40
2019-04-10T23:28:29.034Z,21.33
2019-04-10T23:30:59.382Z,9.57
2019-04-10T23:33:28.124Z,12.87
2019-04-10T23:35:56.228Z,16.60
2019-04-10T23:38:25.713Z,11.03
2019-04-10T23:40:53.798Z,12.57
2019-04-10T23:43:24.226Z,12.33
2019-04-10T23:45:53.650Z,10.03
2019-04-10T23:48:23.110Z,11.30
2019-04-10T23:50:51.880Z,9.90
2019-04-10T23:53:20.668Z,10.93
2019-04-10T23:55:50.338Z,11.23
2019-04-10T23:58:19.893Z,10.70
